sensor_id;sensor_type;location;lat;lon;timestamp;P1;durP1;ratioP1;P2;durP2;ratioP2
70814;SDS011;58428;49.478;10.986;2023-06-05T00:04:30;6.10;;;1.70;;
70814;SDS011;58428;49.478;10.986;2023-06-05T00:09:25;3.53;;;1.70;;
70814;SDS011;58428;49.478;10.986;2023-06-05T00:14:15;3.97;;;1.80;;
70814;SDS011;58428;49.478;10.986;2023-06-05T00:16:41;5.28;;;2.20;;
70814;SDS011;58428;49.478;10.986;2023-06-05T00:21:32;5.03;;;1.95;;
70814;SDS011;58428;49.478;10.986;2023-06-05T00:23:58;4.30;;;1.98;;
70814;SDS011;58428;49.478;10.986;2023-06-05T00:31:29;3.88;;;1.80;;
70814;SDS011;58428;49.478;10.986;2023-06-05T00:34:00;3.33;;;1.65;;
70814;SDS011;58428;49.478;10.986;2023-06-05T00:36:58;4.10;;;1.90;;
70814;SDS011;58428;49.478;10.986;2023-06-05T00:39:25;4.10;;;1.90;;
70814;SDS011;58428;49.478;10.986;2023-06-05T00:44:17;4.72;;;1.92;;
70814;SDS011;58428;49.478;10.986;2023-06-05T00:46:43;3.25;;;1.77;;
70814;SDS011;58428;49.478;10.986;2023-06-05T00:49:09;3.90;;;2.10;;
70814;SDS011;58428;49.478;10.986;2023-06-05T00:51:35;4.57;;;1.80;;
70814;SDS011;58428;49.478;10.986;2023-06-05T00:54:01;3.75;;;1.80;;
70814;SDS011;58428;49.478;10.986;2023-06-05T00:56:28;4.78;;;1.90;;
70814;SDS011;58428;49.478;10.986;2023-06-05T00:59:00;4.95;;;1.77;;
70814;SDS011;58428;49.478;10.986;2023-06-05T01:01:26;6.15;;;1.70;;
70814;SDS011;58428;49.478;10.986;2023-06-05T01:03:55;7.38;;;2.00;;
70814;SDS011;58428;49.478;10.986;2023-06-05T01:06:27;3.47;;;1.85;;
70814;SDS011;58428;49.478;10.986;2023-06-05T01:08:54;3.92;;;1.70;;
70814;SDS011;58428;49.478;10.986;2023-06-05T01:11:24;3.83;;;1.88;;
70814;SDS011;58428;49.478;10.986;2023-06-05T01:14:04;5.07;;;1.92;;
70814;SDS011;58428;49.478;10.986;2023-06-05T01:16:37;3.17;;;1.70;;
70814;SDS011;58428;49.478;10.986;2023-06-05T01:19:03;4.72;;;2.00;;
70814;SDS011;58428;49.478;10.986;2023-06-05T01:21:30;3.92;;;2.10;;
70814;SDS011;58428;49.478;10.986;2023-06-05T01:23:57;4.65;;;2.00;;
70814;SDS011;58428;49.478;10.986;2023-06-05T01:26:26;4.60;;;1.85;;
70814;SDS011;58428;49.478;10.986;2023-06-05T01:28:58;4.32;;;2.00;;
70814;SDS011;58428;49.478;10.986;2023-06-05T01:31:26;4.72;;;1.92;;
70814;SDS011;58428;49.478;10.986;2023-06-05T01:34:02;4.80;;;1.80;;
70814;SDS011;58428;49.478;10.986;2023-06-05T01:36:36;5.57;;;1.80;;
70814;SDS011;58428;49.478;10.986;2023-06-05T01:39:03;5.07;;;2.00;;
70814;SDS011;58428;49.478;10.986;2023-06-05T01:41:30;4.47;;;2.00;;
70814;SDS011;58428;49.478;10.986;2023-06-05T01:43:56;5.72;;;1.98;;
70814;SDS011;58428;49.478;10.986;2023-06-05T01:48:48;4.18;;;1.90;;
70814;SDS011;58428;49.478;10.986;2023-06-05T01:51:15;4.13;;;1.73;;
70814;SDS011;58428;49.478;10.986;2023-06-05T01:56:05;3.50;;;1.73;;
70814;SDS011;58428;49.478;10.986;2023-06-05T01:58:33;4.20;;;1.95;;
70814;SDS011;58428;49.478;10.986;2023-06-05T02:01:00;3.03;;;1.70;;
70814;SDS011;58428;49.478;10.986;2023-06-05T02:05:52;3.20;;;1.80;;
70814;SDS011;58428;49.478;10.986;2023-06-05T02:08:18;4.80;;;2.20;;
70814;SDS011;58428;49.478;10.986;2023-06-05T02:10:45;3.55;;;1.95;;
70814;SDS011;58428;49.478;10.986;2023-06-05T02:13:11;4.22;;;2.00;;
70814;SDS011;58428;49.478;10.986;2023-06-05T02:18:03;4.57;;;2.13;;
70814;SDS011;58428;49.478;10.986;2023-06-05T02:20:29;4.35;;;2.10;;
70814;SDS011;58428;49.478;10.986;2023-06-05T02:22:56;5.30;;;2.22;;
70814;SDS011;58428;49.478;10.986;2023-06-05T02:25:22;5.10;;;2.10;;
70814;SDS011;58428;49.478;10.986;2023-06-05T02:27:52;4.32;;;2.10;;
70814;SDS011;58428;49.478;10.986;2023-06-05T02:30:17;4.13;;;2.00;;
70814;SDS011;58428;49.478;10.986;2023-06-05T02:35:11;4.03;;;1.90;;
70814;SDS011;58428;49.478;10.986;2023-06-05T02:37:38;5.30;;;2.30;;
70814;SDS011;58428;49.478;10.986;2023-06-05T02:40:09;4.93;;;2.10;;
70814;SDS011;58428;49.478;10.986;2023-06-05T02:42:38;3.55;;;1.90;;
70814;SDS011;58428;49.478;10.986;2023-06-05T02:45:05;5.20;;;2.13;;
70814;SDS011;58428;49.478;10.986;2023-06-05T02:47:32;5.22;;;2.00;;
70814;SDS011;58428;49.478;10.986;2023-06-05T02:49:58;4.43;;;2.13;;
70814;SDS011;58428;49.478;10.986;2023-06-05T02:52:23;6.18;;;2.10;;
70814;SDS011;58428;49.478;10.986;2023-06-05T02:54:53;4.70;;;1.98;;
70814;SDS011;58428;49.478;10.986;2023-06-05T02:57:18;5.70;;;2.28;;
70814;SDS011;58428;49.478;10.986;2023-06-05T03:02:10;4.25;;;1.92;;
70814;SDS011;58428;49.478;10.986;2023-06-05T03:04:36;6.43;;;2.10;;
70814;SDS011;58428;49.478;10.986;2023-06-05T03:07:05;5.10;;;2.10;;
70814;SDS011;58428;49.478;10.986;2023-06-05T03:09:32;3.90;;;2.20;;
70814;SDS011;58428;49.478;10.986;2023-06-05T03:11:58;4.10;;;2.15;;
70814;SDS011;58428;49.478;10.986;2023-06-05T03:16:49;5.05;;;2.00;;
70814;SDS011;58428;49.478;10.986;2023-06-05T03:19:15;5.45;;;2.10;;
70814;SDS011;58428;49.478;10.986;2023-06-05T03:21:41;6.30;;;2.42;;
70814;SDS011;58428;49.478;10.986;2023-06-05T03:24:08;4.47;;;2.20;;
70814;SDS011;58428;49.478;10.986;2023-06-05T03:26:35;4.28;;;2.05;;
70814;SDS011;58428;49.478;10.986;2023-06-05T03:29:01;5.65;;;1.98;;
70814;SDS011;58428;49.478;10.986;2023-06-05T03:31:27;4.50;;;1.90;;
70814;SDS011;58428;49.478;10.986;2023-06-05T03:33:52;5.80;;;2.35;;
70814;SDS011;58428;49.478;10.986;2023-06-05T03:38:44;4.53;;;2.15;;
70814;SDS011;58428;49.478;10.986;2023-06-05T03:41:10;5.55;;;2.30;;
70814;SDS011;58428;49.478;10.986;2023-06-05T03:43:35;4.93;;;2.05;;
70814;SDS011;58428;49.478;10.986;2023-06-05T03:46:01;4.22;;;2.00;;
70814;SDS011;58428;49.478;10.986;2023-06-05T03:48:27;5.95;;;2.28;;
70814;SDS011;58428;49.478;10.986;2023-06-05T03:50:52;4.07;;;2.03;;
70814;SDS011;58428;49.478;10.986;2023-06-05T03:53:18;5.03;;;2.00;;
70814;SDS011;58428;49.478;10.986;2023-06-05T03:55:43;4.47;;;2.03;;
70814;SDS011;58428;49.478;10.986;2023-06-05T03:58:11;5.63;;;2.20;;
70814;SDS011;58428;49.478;10.986;2023-06-05T04:00:42;5.45;;;1.98;;
70814;SDS011;58428;49.478;10.986;2023-06-05T04:03:09;4.53;;;2.10;;
70814;SDS011;58428;49.478;10.986;2023-06-05T04:05:38;5.18;;;2.42;;
70814;SDS011;58428;49.478;10.986;2023-06-05T04:08:08;4.35;;;2.10;;
70814;SDS011;58428;49.478;10.986;2023-06-05T04:10:37;4.35;;;2.10;;
70814;SDS011;58428;49.478;10.986;2023-06-05T04:13:03;6.20;;;2.08;;
70814;SDS011;58428;49.478;10.986;2023-06-05T04:15:29;5.68;;;2.33;;
70814;SDS011;58428;49.478;10.986;2023-06-05T04:17:54;4.90;;;2.22;;
70814;SDS011;58428;49.478;10.986;2023-06-05T04:20:20;5.15;;;2.25;;
70814;SDS011;58428;49.478;10.986;2023-06-05T04:22:46;4.22;;;2.20;;
70814;SDS011;58428;49.478;10.986;2023-06-05T04:25:12;5.55;;;2.38;;
70814;SDS011;58428;49.478;10.986;2023-06-05T04:27:38;4.88;;;2.30;;
70814;SDS011;58428;49.478;10.986;2023-06-05T04:30:07;6.40;;;2.10;;
70814;SDS011;58428;49.478;10.986;2023-06-05T04:32:35;6.28;;;2.17;;
70814;SDS011;58428;49.478;10.986;2023-06-05T04:35:04;4.05;;;2.15;;
70814;SDS011;58428;49.478;10.986;2023-06-05T04:37:34;5.10;;;2.30;;
70814;SDS011;58428;49.478;10.986;2023-06-05T04:40:01;5.20;;;2.22;;
70814;SDS011;58428;49.478;10.986;2023-06-05T04:42:34;6.60;;;2.30;;
70814;SDS011;58428;49.478;10.986;2023-06-05T04:45:01;5.25;;;2.60;;
70814;SDS011;58428;49.478;10.986;2023-06-05T04:47:29;4.20;;;2.08;;
70814;SDS011;58428;49.478;10.986;2023-06-05T04:49:57;5.00;;;2.50;;
70814;SDS011;58428;49.478;10.986;2023-06-05T04:52:24;5.95;;;2.40;;
70814;SDS011;58428;49.478;10.986;2023-06-05T04:54:51;5.88;;;2.13;;
70814;SDS011;58428;49.478;10.986;2023-06-05T04:59:44;4.80;;;2.15;;
70814;SDS011;58428;49.478;10.986;2023-06-05T05:02:10;5.38;;;2.28;;
70814;SDS011;58428;49.478;10.986;2023-06-05T05:07:01;5.05;;;2.13;;
70814;SDS011;58428;49.478;10.986;2023-06-05T05:09:27;6.20;;;2.35;;
70814;SDS011;58428;49.478;10.986;2023-06-05T05:11:53;7.63;;;2.20;;
70814;SDS011;58428;49.478;10.986;2023-06-05T05:16:44;4.93;;;1.90;;
70814;SDS011;58428;49.478;10.986;2023-06-05T05:21:35;5.22;;;2.30;;
70814;SDS011;58428;49.478;10.986;2023-06-05T05:24:01;4.43;;;2.13;;
70814;SDS011;58428;49.478;10.986;2023-06-05T05:28:52;6.20;;;2.20;;
70814;SDS011;58428;49.478;10.986;2023-06-05T05:31:17;3.55;;;1.90;;
70814;SDS011;58428;49.478;10.986;2023-06-05T05:33:43;4.53;;;2.10;;
70814;SDS011;58428;49.478;10.986;2023-06-05T05:38:34;4.78;;;2.00;;
70814;SDS011;58428;49.478;10.986;2023-06-05T05:43:25;4.40;;;2.13;;
70814;SDS011;58428;49.478;10.986;2023-06-05T05:48:16;3.73;;;1.90;;
70814;SDS011;58428;49.478;10.986;2023-06-05T05:50:42;3.55;;;1.80;;
70814;SDS011;58428;49.478;10.986;2023-06-05T05:55:33;4.47;;;1.70;;
70814;SDS011;58428;49.478;10.986;2023-06-05T06:00:24;3.45;;;1.90;;
70814;SDS011;58428;49.478;10.986;2023-06-05T06:02:49;4.20;;;1.88;;
70814;SDS011;58428;49.478;10.986;2023-06-05T06:05:17;3.13;;;1.65;;
70814;SDS011;58428;49.478;10.986;2023-06-05T06:07:43;3.90;;;1.80;;
70814;SDS011;58428;49.478;10.986;2023-06-05T06:10:09;3.97;;;1.90;;
70814;SDS011;58428;49.478;10.986;2023-06-05T06:12:36;4.32;;;1.90;;
70814;SDS011;58428;49.478;10.986;2023-06-05T06:15:02;3.55;;;1.83;;
70814;SDS011;58428;49.478;10.986;2023-06-05T06:17:29;5.03;;;1.98;;
70814;SDS011;58428;49.478;10.986;2023-06-05T06:19:54;4.80;;;1.70;;
70814;SDS011;58428;49.478;10.986;2023-06-05T06:22:20;4.28;;;1.70;;
70814;SDS011;58428;49.478;10.986;2023-06-05T06:24:45;4.18;;;1.83;;
70814;SDS011;58428;49.478;10.986;2023-06-05T06:27:11;4.00;;;1.80;;
70814;SDS011;58428;49.478;10.986;2023-06-05T06:29:45;5.05;;;1.90;;
70814;SDS011;58428;49.478;10.986;2023-06-05T06:32:12;5.90;;;2.28;;
70814;SDS011;58428;49.478;10.986;2023-06-05T06:34:38;5.88;;;2.60;;
70814;SDS011;58428;49.478;10.986;2023-06-05T06:37:03;4.75;;;2.00;;
70814;SDS011;58428;49.478;10.986;2023-06-05T06:39:29;5.55;;;2.10;;
70814;SDS011;58428;49.478;10.986;2023-06-05T06:41:54;6.15;;;1.65;;
70814;SDS011;58428;49.478;10.986;2023-06-05T06:44:21;4.45;;;2.00;;
70814;SDS011;58428;49.478;10.986;2023-06-05T06:46:47;4.88;;;1.83;;
70814;SDS011;58428;49.478;10.986;2023-06-05T06:49:12;5.57;;;1.95;;
70814;SDS011;58428;49.478;10.986;2023-06-05T06:51:38;4.47;;;1.83;;
70814;SDS011;58428;49.478;10.986;2023-06-05T06:54:03;4.20;;;2.00;;
70814;SDS011;58428;49.478;10.986;2023-06-05T06:56:29;3.95;;;2.00;;
70814;SDS011;58428;49.478;10.986;2023-06-05T06:58:54;6.00;;;2.00;;
70814;SDS011;58428;49.478;10.986;2023-06-05T07:01:20;3.83;;;1.90;;
70814;SDS011;58428;49.478;10.986;2023-06-05T07:03:46;4.75;;;1.90;;
70814;SDS011;58428;49.478;10.986;2023-06-05T07:06:11;4.97;;;2.00;;
70814;SDS011;58428;49.478;10.986;2023-06-05T07:08:37;3.33;;;1.83;;
70814;SDS011;58428;49.478;10.986;2023-06-05T07:11:03;4.97;;;2.13;;
70814;SDS011;58428;49.478;10.986;2023-06-05T07:13:28;5.00;;;2.08;;
70814;SDS011;58428;49.478;10.986;2023-06-05T07:15:54;4.47;;;1.80;;
70814;SDS011;58428;49.478;10.986;2023-06-05T07:18:20;3.78;;;2.03;;
70814;SDS011;58428;49.478;10.986;2023-06-05T07:20:46;4.07;;;2.10;;
70814;SDS011;58428;49.478;10.986;2023-06-05T07:23:12;4.97;;;2.13;;
70814;SDS011;58428;49.478;10.986;2023-06-05T07:25:38;4.70;;;2.10;;
70814;SDS011;58428;49.478;10.986;2023-06-05T07:28:08;4.32;;;2.20;;
70814;SDS011;58428;49.478;10.986;2023-06-05T07:30:36;5.90;;;2.40;;
70814;SDS011;58428;49.478;10.986;2023-06-05T07:33:02;4.03;;;2.00;;
70814;SDS011;58428;49.478;10.986;2023-06-05T07:35:28;6.35;;;2.50;;
70814;SDS011;58428;49.478;10.986;2023-06-05T07:37:54;4.55;;;2.72;;
70814;SDS011;58428;49.478;10.986;2023-06-05T07:40:19;4.18;;;2.53;;
70814;SDS011;58428;49.478;10.986;2023-06-05T07:42:45;5.13;;;2.90;;
70814;SDS011;58428;49.478;10.986;2023-06-05T07:45:11;7.43;;;3.00;;
70814;SDS011;58428;49.478;10.986;2023-06-05T07:47:36;6.18;;;3.10;;
70814;SDS011;58428;49.478;10.986;2023-06-05T07:50:02;5.28;;;2.88;;
70814;SDS011;58428;49.478;10.986;2023-06-05T07:52:31;5.55;;;3.03;;
70814;SDS011;58428;49.478;10.986;2023-06-05T07:54:57;6.95;;;3.00;;
70814;SDS011;58428;49.478;10.986;2023-06-05T07:57:23;8.50;;;3.30;;
70814;SDS011;58428;49.478;10.986;2023-06-05T07:59:49;7.72;;;2.88;;
70814;SDS011;58428;49.478;10.986;2023-06-05T08:02:16;5.68;;;2.85;;
70814;SDS011;58428;49.478;10.986;2023-06-05T08:04:42;5.85;;;3.08;;
70814;SDS011;58428;49.478;10.986;2023-06-05T08:07:07;7.13;;;3.00;;
70814;SDS011;58428;49.478;10.986;2023-06-05T08:09:33;5.60;;;3.08;;
70814;SDS011;58428;49.478;10.986;2023-06-05T08:11:59;5.80;;;3.35;;
70814;SDS011;58428;49.478;10.986;2023-06-05T08:14:24;6.18;;;3.17;;
70814;SDS011;58428;49.478;10.986;2023-06-05T08:16:50;6.03;;;3.00;;
70814;SDS011;58428;49.478;10.986;2023-06-05T08:19:16;5.82;;;3.33;;
70814;SDS011;58428;49.478;10.986;2023-06-05T08:21:42;7.78;;;3.25;;
70814;SDS011;58428;49.478;10.986;2023-06-05T08:24:07;5.70;;;3.20;;
70814;SDS011;58428;49.478;10.986;2023-06-05T08:26:32;6.53;;;3.08;;
70814;SDS011;58428;49.478;10.986;2023-06-05T08:28:59;4.72;;;3.03;;
70814;SDS011;58428;49.478;10.986;2023-06-05T08:31:24;5.25;;;2.88;;
70814;SDS011;58428;49.478;10.986;2023-06-05T08:33:50;6.35;;;3.15;;
70814;SDS011;58428;49.478;10.986;2023-06-05T08:36:16;6.25;;;3.22;;
70814;SDS011;58428;49.478;10.986;2023-06-05T08:38:42;5.50;;;3.00;;
70814;SDS011;58428;49.478;10.986;2023-06-05T08:41:08;4.25;;;2.42;;
70814;SDS011;58428;49.478;10.986;2023-06-05T08:43:35;5.85;;;3.08;;
70814;SDS011;58428;49.478;10.986;2023-06-05T08:46:02;5.18;;;3.20;;
70814;SDS011;58428;49.478;10.986;2023-06-05T08:48:30;6.68;;;2.90;;
70814;SDS011;58428;49.478;10.986;2023-06-05T08:50:59;7.78;;;2.97;;
70814;SDS011;58428;49.478;10.986;2023-06-05T08:53:25;6.40;;;3.20;;
70814;SDS011;58428;49.478;10.986;2023-06-05T08:58:22;5.10;;;2.90;;
70814;SDS011;58428;49.478;10.986;2023-06-05T09:00:48;6.10;;;3.10;;
70814;SDS011;58428;49.478;10.986;2023-06-05T09:03:14;8.35;;;3.30;;
70814;SDS011;58428;49.478;10.986;2023-06-05T09:05:45;6.65;;;3.35;;
70814;SDS011;58428;49.478;10.986;2023-06-05T09:08:14;6.32;;;3.40;;
70814;SDS011;58428;49.478;10.986;2023-06-05T09:10:41;7.05;;;3.25;;
70814;SDS011;58428;49.478;10.986;2023-06-05T09:13:06;6.13;;;3.28;;
70814;SDS011;58428;49.478;10.986;2023-06-05T09:15:36;6.90;;;3.33;;
70814;SDS011;58428;49.478;10.986;2023-06-05T09:18:05;8.27;;;3.55;;
70814;SDS011;58428;49.478;10.986;2023-06-05T09:20:36;8.15;;;3.97;;
70814;SDS011;58428;49.478;10.986;2023-06-05T09:23:04;8.77;;;3.88;;
70814;SDS011;58428;49.478;10.986;2023-06-05T09:25:48;5.53;;;3.65;;
70814;SDS011;58428;49.478;10.986;2023-06-05T09:28:14;7.05;;;3.70;;
70814;SDS011;58428;49.478;10.986;2023-06-05T09:31:01;6.70;;;3.58;;
70814;SDS011;58428;49.478;10.986;2023-06-05T09:33:29;5.80;;;3.50;;
70814;SDS011;58428;49.478;10.986;2023-06-05T09:38:32;7.05;;;4.00;;
70814;SDS011;58428;49.478;10.986;2023-06-05T09:43:33;6.10;;;3.47;;
70814;SDS011;58428;49.478;10.986;2023-06-05T09:46:05;7.03;;;3.75;;
70814;SDS011;58428;49.478;10.986;2023-06-05T09:48:35;7.85;;;3.65;;
70814;SDS011;58428;49.478;10.986;2023-06-05T09:51:08;7.00;;;3.78;;
70814;SDS011;58428;49.478;10.986;2023-06-05T09:53:41;6.78;;;3.92;;
70814;SDS011;58428;49.478;10.986;2023-06-05T09:56:10;8.45;;;4.07;;
70814;SDS011;58428;49.478;10.986;2023-06-05T09:58:37;8.20;;;4.50;;
70814;SDS011;58428;49.478;10.986;2023-06-05T10:01:02;6.85;;;4.28;;
70814;SDS011;58428;49.478;10.986;2023-06-05T10:03:32;6.05;;;3.75;;
70814;SDS011;58428;49.478;10.986;2023-06-05T10:06:02;8.57;;;4.60;;
70814;SDS011;58428;49.478;10.986;2023-06-05T10:08:30;7.15;;;3.95;;
70814;SDS011;58428;49.478;10.986;2023-06-05T10:10:56;6.65;;;3.83;;
70814;SDS011;58428;49.478;10.986;2023-06-05T10:13:22;6.40;;;3.83;;
70814;SDS011;58428;49.478;10.986;2023-06-05T10:15:48;6.13;;;4.00;;
70814;SDS011;58428;49.478;10.986;2023-06-05T10:18:17;7.65;;;3.78;;
70814;SDS011;58428;49.478;10.986;2023-06-05T10:20:42;7.15;;;4.05;;
70814;SDS011;58428;49.478;10.986;2023-06-05T10:23:11;7.93;;;4.13;;
70814;SDS011;58428;49.478;10.986;2023-06-05T10:25:40;4.90;;;3.38;;
70814;SDS011;58428;49.478;10.986;2023-06-05T10:39:11;6.80;;;3.90;;
70814;SDS011;58428;49.478;10.986;2023-06-05T10:41:38;6.82;;;3.90;;
70814;SDS011;58428;49.478;10.986;2023-06-05T10:44:04;5.60;;;3.83;;
70814;SDS011;58428;49.478;10.986;2023-06-05T10:49:09;6.10;;;3.58;;
70814;SDS011;58428;49.478;10.986;2023-06-05T10:51:47;6.43;;;3.83;;
70814;SDS011;58428;49.478;10.986;2023-06-05T10:59:24;6.10;;;3.50;;
70814;SDS011;58428;49.478;10.986;2023-06-05T11:15:05;6.78;;;3.60;;
70814;SDS011;58428;49.478;10.986;2023-06-05T11:20:01;7.78;;;3.83;;
70814;SDS011;58428;49.478;10.986;2023-06-05T11:28:05;7.00;;;3.67;;
70814;SDS011;58428;49.478;10.986;2023-06-05T11:30:38;7.32;;;3.45;;
70814;SDS011;58428;49.478;10.986;2023-06-05T11:33:14;6.68;;;3.28;;
70814;SDS011;58428;49.478;10.986;2023-06-05T11:35:45;5.50;;;3.53;;
70814;SDS011;58428;49.478;10.986;2023-06-05T11:38:12;10.55;;;3.92;;
70814;SDS011;58428;49.478;10.986;2023-06-05T11:40:42;6.10;;;3.40;;
70814;SDS011;58428;49.478;10.986;2023-06-05T11:43:09;7.20;;;3.30;;
70814;SDS011;58428;49.478;10.986;2023-06-05T11:45:38;5.32;;;3.60;;
70814;SDS011;58428;49.478;10.986;2023-06-05T11:48:08;5.70;;;2.95;;
70814;SDS011;58428;49.478;10.986;2023-06-05T11:50:35;5.70;;;3.38;;
70814;SDS011;58428;49.478;10.986;2023-06-05T11:53:08;5.60;;;3.30;;
70814;SDS011;58428;49.478;10.986;2023-06-05T11:55:35;7.70;;;3.33;;
70814;SDS011;58428;49.478;10.986;2023-06-05T11:58:22;6.60;;;3.65;;
70814;SDS011;58428;49.478;10.986;2023-06-05T12:01:03;6.07;;;3.28;;
70814;SDS011;58428;49.478;10.986;2023-06-05T12:03:43;4.80;;;2.92;;
70814;SDS011;58428;49.478;10.986;2023-06-05T12:06:10;5.20;;;2.90;;
70814;SDS011;58428;49.478;10.986;2023-06-05T12:08:38;4.18;;;3.03;;
70814;SDS011;58428;49.478;10.986;2023-06-05T12:11:47;4.95;;;3.40;;
70814;SDS011;58428;49.478;10.986;2023-06-05T12:13:54;5.93;;;2.92;;
70814;SDS011;58428;49.478;10.986;2023-06-05T12:16:29;6.85;;;3.13;;
70814;SDS011;58428;49.478;10.986;2023-06-05T12:18:57;4.10;;;2.60;;
70814;SDS011;58428;49.478;10.986;2023-06-05T12:21:23;5.78;;;2.80;;
70814;SDS011;58428;49.478;10.986;2023-06-05T12:23:49;4.22;;;2.90;;
70814;SDS011;58428;49.478;10.986;2023-06-05T12:26:16;6.25;;;3.00;;
70814;SDS011;58428;49.478;10.986;2023-06-05T12:28:42;4.43;;;2.72;;
70814;SDS011;58428;49.478;10.986;2023-06-05T12:31:09;4.63;;;2.75;;
70814;SDS011;58428;49.478;10.986;2023-06-05T12:33:45;5.57;;;2.80;;
70814;SDS011;58428;49.478;10.986;2023-06-05T12:36:14;5.57;;;2.90;;
70814;SDS011;58428;49.478;10.986;2023-06-05T12:38:40;5.97;;;2.78;;
70814;SDS011;58428;49.478;10.986;2023-06-05T12:41:09;5.53;;;2.50;;
70814;SDS011;58428;49.478;10.986;2023-06-05T12:43:35;3.85;;;2.33;;
70814;SDS011;58428;49.478;10.986;2023-06-05T12:46:00;3.55;;;2.25;;
70814;SDS011;58428;49.478;10.986;2023-06-05T12:48:26;3.55;;;2.08;;
70814;SDS011;58428;49.478;10.986;2023-06-05T12:50:52;5.15;;;2.30;;
70814;SDS011;58428;49.478;10.986;2023-06-05T12:53:19;3.25;;;2.20;;
70814;SDS011;58428;49.478;10.986;2023-06-05T12:55:45;2.70;;;2.10;;
70814;SDS011;58428;49.478;10.986;2023-06-05T12:58:10;4.72;;;2.20;;
70814;SDS011;58428;49.478;10.986;2023-06-05T13:00:36;4.25;;;2.10;;
70814;SDS011;58428;49.478;10.986;2023-06-05T13:03:02;4.88;;;2.17;;
70814;SDS011;58428;49.478;10.986;2023-06-05T13:07:54;3.38;;;2.20;;
70814;SDS011;58428;49.478;10.986;2023-06-05T13:10:20;4.47;;;2.20;;
70814;SDS011;58428;49.478;10.986;2023-06-05T13:12:45;4.03;;;2.28;;
70814;SDS011;58428;49.478;10.986;2023-06-05T13:15:11;5.90;;;2.22;;
70814;SDS011;58428;49.478;10.986;2023-06-05T13:17:36;3.65;;;2.05;;
70814;SDS011;58428;49.478;10.986;2023-06-05T13:20:03;2.90;;;1.63;;
70814;SDS011;58428;49.478;10.986;2023-06-05T13:22:33;4.80;;;1.90;;
70814;SDS011;58428;49.478;10.986;2023-06-05T13:24:59;3.45;;;2.00;;
70814;SDS011;58428;49.478;10.986;2023-06-05T13:27:25;3.28;;;1.73;;
70814;SDS011;58428;49.478;10.986;2023-06-05T13:29:50;4.03;;;2.10;;
70814;SDS011;58428;49.478;10.986;2023-06-05T13:32:16;2.63;;;1.83;;
70814;SDS011;58428;49.478;10.986;2023-06-05T13:34:42;6.80;;;3.25;;
70814;SDS011;58428;49.478;10.986;2023-06-05T13:37:07;4.85;;;2.58;;
70814;SDS011;58428;49.478;10.986;2023-06-05T13:39:32;4.43;;;2.28;;
70814;SDS011;58428;49.478;10.986;2023-06-05T13:41:58;6.68;;;3.00;;
70814;SDS011;58428;49.478;10.986;2023-06-05T13:44:23;3.60;;;2.15;;
70814;SDS011;58428;49.478;10.986;2023-06-05T13:46:49;4.93;;;2.05;;
70814;SDS011;58428;49.478;10.986;2023-06-05T13:49:14;3.05;;;1.90;;
70814;SDS011;58428;49.478;10.986;2023-06-05T13:51:41;3.28;;;2.05;;
70814;SDS011;58428;49.478;10.986;2023-06-05T13:54:06;3.67;;;1.90;;
70814;SDS011;58428;49.478;10.986;2023-06-05T13:56:32;9.15;;;4.30;;
70814;SDS011;58428;49.478;10.986;2023-06-05T13:58:57;3.25;;;2.00;;
70814;SDS011;58428;49.478;10.986;2023-06-05T14:01:23;5.63;;;2.95;;
70814;SDS011;58428;49.478;10.986;2023-06-05T14:03:50;3.78;;;1.98;;
70814;SDS011;58428;49.478;10.986;2023-06-05T14:06:16;11.50;;;7.05;;
70814;SDS011;58428;49.478;10.986;2023-06-05T14:08:42;5.53;;;3.15;;
70814;SDS011;58428;49.478;10.986;2023-06-05T14:11:08;4.85;;;2.50;;
70814;SDS011;58428;49.478;10.986;2023-06-05T14:13:34;5.32;;;2.20;;
70814;SDS011;58428;49.478;10.986;2023-06-05T14:16:00;5.32;;;2.70;;
70814;SDS011;58428;49.478;10.986;2023-06-05T14:18:26;4.00;;;2.28;;
70814;SDS011;58428;49.478;10.986;2023-06-05T14:20:52;3.88;;;2.30;;
70814;SDS011;58428;49.478;10.986;2023-06-05T14:23:17;3.60;;;2.28;;
70814;SDS011;58428;49.478;10.986;2023-06-05T14:25:45;4.88;;;2.25;;
70814;SDS011;58428;49.478;10.986;2023-06-05T14:28:10;6.20;;;2.60;;
70814;SDS011;58428;49.478;10.986;2023-06-05T14:30:36;5.05;;;2.60;;
70814;SDS011;58428;49.478;10.986;2023-06-05T14:33:02;6.47;;;4.38;;
70814;SDS011;58428;49.478;10.986;2023-06-05T14:35:27;13.10;;;11.73;;
70814;SDS011;58428;49.478;10.986;2023-06-05T14:37:54;7.47;;;5.18;;
70814;SDS011;58428;49.478;10.986;2023-06-05T14:40:19;4.70;;;3.13;;
70814;SDS011;58428;49.478;10.986;2023-06-05T14:42:45;3.35;;;2.33;;
70814;SDS011;58428;49.478;10.986;2023-06-05T14:45:10;4.72;;;2.97;;
70814;SDS011;58428;49.478;10.986;2023-06-05T14:47:36;13.35;;;8.90;;
70814;SDS011;58428;49.478;10.986;2023-06-05T14:50:02;15.45;;;11.07;;
70814;SDS011;58428;49.478;10.986;2023-06-05T14:52:27;7.90;;;6.30;;
70814;SDS011;58428;49.478;10.986;2023-06-05T14:54:53;7.72;;;5.00;;
70814;SDS011;58428;49.478;10.986;2023-06-05T14:57:18;14.75;;;11.88;;
70814;SDS011;58428;49.478;10.986;2023-06-05T14:59:44;9.00;;;6.78;;
70814;SDS011;58428;49.478;10.986;2023-06-05T15:02:09;25.30;;;10.38;;
70814;SDS011;58428;49.478;10.986;2023-06-05T15:04:35;19.77;;;8.15;;
70814;SDS011;58428;49.478;10.986;2023-06-05T15:07:01;6.80;;;2.90;;
70814;SDS011;58428;49.478;10.986;2023-06-05T15:09:26;13.43;;;5.30;;
70814;SDS011;58428;49.478;10.986;2023-06-05T15:11:52;7.25;;;3.45;;
70814;SDS011;58428;49.478;10.986;2023-06-05T15:14:20;40.75;;;22.00;;
70814;SDS011;58428;49.478;10.986;2023-06-05T15:16:46;24.17;;;19.70;;
70814;SDS011;58428;49.478;10.986;2023-06-05T15:19:11;7.78;;;4.82;;
70814;SDS011;58428;49.478;10.986;2023-06-05T15:21:37;8.75;;;6.38;;
70814;SDS011;58428;49.478;10.986;2023-06-05T15:24:03;4.97;;;3.80;;
70814;SDS011;58428;49.478;10.986;2023-06-05T15:26:28;8.75;;;6.13;;
70814;SDS011;58428;49.478;10.986;2023-06-05T15:28:54;12.30;;;8.73;;
70814;SDS011;58428;49.478;10.986;2023-06-05T15:31:19;7.00;;;3.88;;
70814;SDS011;58428;49.478;10.986;2023-06-05T15:33:44;11.52;;;3.60;;
70814;SDS011;58428;49.478;10.986;2023-06-05T15:36:10;9.35;;;5.38;;
70814;SDS011;58428;49.478;10.986;2023-06-05T15:38:35;10.13;;;6.57;;
70814;SDS011;58428;49.478;10.986;2023-06-05T15:41:01;10.07;;;6.88;;
70814;SDS011;58428;49.478;10.986;2023-06-05T15:43:26;8.35;;;5.75;;
70814;SDS011;58428;49.478;10.986;2023-06-05T15:45:52;7.25;;;4.50;;
70814;SDS011;58428;49.478;10.986;2023-06-05T15:48:18;10.07;;;3.53;;
70814;SDS011;58428;49.478;10.986;2023-06-05T15:50:45;6.68;;;4.20;;
70814;SDS011;58428;49.478;10.986;2023-06-05T15:53:11;9.23;;;3.70;;
70814;SDS011;58428;49.478;10.986;2023-06-05T15:55:37;6.80;;;3.53;;
70814;SDS011;58428;49.478;10.986;2023-06-05T15:58:04;8.02;;;3.42;;
70814;SDS011;58428;49.478;10.986;2023-06-05T16:00:30;9.00;;;5.95;;
70814;SDS011;58428;49.478;10.986;2023-06-05T16:02:56;12.75;;;7.20;;
70814;SDS011;58428;49.478;10.986;2023-06-05T16:05:22;9.38;;;5.95;;
70814;SDS011;58428;49.478;10.986;2023-06-05T16:07:48;6.72;;;3.92;;
70814;SDS011;58428;49.478;10.986;2023-06-05T16:10:14;7.57;;;3.60;;
70814;SDS011;58428;49.478;10.986;2023-06-05T16:12:40;11.38;;;5.65;;
70814;SDS011;58428;49.478;10.986;2023-06-05T16:15:06;10.02;;;4.13;;
70814;SDS011;58428;49.478;10.986;2023-06-05T16:17:32;9.35;;;5.60;;
70814;SDS011;58428;49.478;10.986;2023-06-05T16:19:57;9.30;;;4.45;;
70814;SDS011;58428;49.478;10.986;2023-06-05T16:22:22;13.63;;;7.75;;
70814;SDS011;58428;49.478;10.986;2023-06-05T16:24:48;13.35;;;8.20;;